sensor_id;sensor_type;location;lat;lon;timestamp;P1;durP1;ratioP1;P2;durP2;ratioP2
60831;SDS011;46665;51.558;-0.448;2023-04-16T00:01:34;4.25;;;2.80;;
60831;SDS011;46665;51.558;-0.448;2023-04-16T00:03:59;6.30;;;3.05;;
60831;SDS011;46665;51.558;-0.448;2023-04-16T00:06:25;4.38;;;3.03;;
60831;SDS011;46665;51.558;-0.448;2023-04-16T00:08:51;6.70;;;3.53;;
60831;SDS011;46665;51.558;-0.448;2023-04-16T00:11:16;11.25;;;2.80;;
60831;SDS011;46665;51.558;-0.448;2023-04-16T00:13:42;3.53;;;2.65;;
60831;SDS011;46665;51.558;-0.448;2023-04-16T00:16:07;3.10;;;2.80;;
60831;SDS011;46665;51.558;-0.448;2023-04-16T00:18:33;5.78;;;2.92;;
60831;SDS011;46665;51.558;-0.448;2023-04-16T00:20:58;4.90;;;2.80;;
60831;SDS011;46665;51.558;-0.448;2023-04-16T00:23:24;3.28;;;1.92;;
60831;SDS011;46665;51.558;-0.448;2023-04-16T00:25:49;7.40;;;2.58;;
60831;SDS011;46665;51.558;-0.448;2023-04-16T00:28:15;4.85;;;2.85;;
60831;SDS011;46665;51.558;-0.448;2023-04-16T00:30:41;4.88;;;3.00;;
60831;SDS011;46665;51.558;-0.448;2023-04-16T00:33:06;7.38;;;3.03;;
60831;SDS011;46665;51.558;-0.448;2023-04-16T00:35:31;3.90;;;2.83;;
60831;SDS011;46665;51.558;-0.448;2023-04-16T00:37:57;4.97;;;2.90;;
60831;SDS011;46665;51.558;-0.448;2023-04-16T00:40:23;3.47;;;2.45;;
60831;SDS011;46665;51.558;-0.448;2023-04-16T00:42:52;4.72;;;2.67;;
60831;SDS011;46665;51.558;-0.448;2023-04-16T00:45:17;4.50;;;2.95;;
60831;SDS011;46665;51.558;-0.448;2023-04-16T00:47:42;6.43;;;3.17;;
60831;SDS011;46665;51.558;-0.448;2023-04-16T00:50:08;7.15;;;2.78;;
60831;SDS011;46665;51.558;-0.448;2023-04-16T00:52:35;9.55;;;3.03;;
60831;SDS011;46665;51.558;-0.448;2023-04-16T00:55:01;7.22;;;2.47;;
60831;SDS011;46665;51.558;-0.448;2023-04-16T00:57:26;5.65;;;3.45;;
60831;SDS011;46665;51.558;-0.448;2023-04-16T00:59:52;3.67;;;2.67;;
60831;SDS011;46665;51.558;-0.448;2023-04-16T01:02:18;5.20;;;2.60;;
60831;SDS011;46665;51.558;-0.448;2023-04-16T01:04:43;4.60;;;2.33;;
60831;SDS011;46665;51.558;-0.448;2023-04-16T01:07:09;7.05;;;2.20;;
60831;SDS011;46665;51.558;-0.448;2023-04-16T01:09:35;9.48;;;3.20;;
60831;SDS011;46665;51.558;-0.448;2023-04-16T01:12:00;5.00;;;2.80;;
60831;SDS011;46665;51.558;-0.448;2023-04-16T01:14:26;6.88;;;2.70;;
60831;SDS011;46665;51.558;-0.448;2023-04-16T01:16:51;4.40;;;2.33;;
60831;SDS011;46665;51.558;-0.448;2023-04-16T01:19:17;5.72;;;2.78;;
60831;SDS011;46665;51.558;-0.448;2023-04-16T01:21:42;10.75;;;2.58;;
60831;SDS011;46665;51.558;-0.448;2023-04-16T01:24:07;2.92;;;2.05;;
60831;SDS011;46665;51.558;-0.448;2023-04-16T01:26:33;3.28;;;2.17;;
60831;SDS011;46665;51.558;-0.448;2023-04-16T01:28:58;3.65;;;2.67;;
60831;SDS011;46665;51.558;-0.448;2023-04-16T01:31:24;4.05;;;2.65;;
60831;SDS011;46665;51.558;-0.448;2023-04-16T01:33:49;3.53;;;2.70;;
60831;SDS011;46665;51.558;-0.448;2023-04-16T01:36:15;4.78;;;2.60;;
60831;SDS011;46665;51.558;-0.448;2023-04-16T01:38:40;3.85;;;2.88;;
60831;SDS011;46665;51.558;-0.448;2023-04-16T01:41:06;2.90;;;2.40;;
60831;SDS011;46665;51.558;-0.448;2023-04-16T01:43:31;8.18;;;3.45;;
60831;SDS011;46665;51.558;-0.448;2023-04-16T01:49:00;7.15;;;3.13;;
60831;SDS011;46665;51.558;-0.448;2023-04-16T01:51:26;3.53;;;2.45;;
60831;SDS011;46665;51.558;-0.448;2023-04-16T01:53:52;5.18;;;2.88;;
60831;SDS011;46665;51.558;-0.448;2023-04-16T01:56:18;5.57;;;2.35;;
60831;SDS011;46665;51.558;-0.448;2023-04-16T01:58:43;3.60;;;2.85;;
60831;SDS011;46665;51.558;-0.448;2023-04-16T02:01:10;8.07;;;2.83;;
60831;SDS011;46665;51.558;-0.448;2023-04-16T02:03:35;3.67;;;2.88;;
60831;SDS011;46665;51.558;-0.448;2023-04-16T02:06:01;6.47;;;2.88;;
60831;SDS011;46665;51.558;-0.448;2023-04-16T02:08:27;3.28;;;2.63;;
60831;SDS011;46665;51.558;-0.448;2023-04-16T02:10:52;4.65;;;2.47;;
60831;SDS011;46665;51.558;-0.448;2023-04-16T02:13:17;7.20;;;3.20;;
60831;SDS011;46665;51.558;-0.448;2023-04-16T02:15:44;4.18;;;2.95;;
60831;SDS011;46665;51.558;-0.448;2023-04-16T02:18:11;7.50;;;4.50;;
60831;SDS011;46665;51.558;-0.448;2023-04-16T02:20:38;7.47;;;4.22;;
60831;SDS011;46665;51.558;-0.448;2023-04-16T02:23:05;10.55;;;5.65;;
60831;SDS011;46665;51.558;-0.448;2023-04-16T02:25:30;10.45;;;5.32;;
60831;SDS011;46665;51.558;-0.448;2023-04-16T02:27:56;12.80;;;6.13;;
60831;SDS011;46665;51.558;-0.448;2023-04-16T02:30:22;9.85;;;5.05;;
60831;SDS011;46665;51.558;-0.448;2023-04-16T02:32:48;9.32;;;5.78;;
60831;SDS011;46665;51.558;-0.448;2023-04-16T02:35:13;9.95;;;5.50;;
60831;SDS011;46665;51.558;-0.448;2023-04-16T02:37:39;8.65;;;5.63;;
60831;SDS011;46665;51.558;-0.448;2023-04-16T02:40:05;10.35;;;4.82;;
60831;SDS011;46665;51.558;-0.448;2023-04-16T02:42:30;12.27;;;5.45;;
60831;SDS011;46665;51.558;-0.448;2023-04-16T02:44:56;8.80;;;4.80;;
60831;SDS011;46665;51.558;-0.448;2023-04-16T02:47:21;5.00;;;3.60;;
60831;SDS011;46665;51.558;-0.448;2023-04-16T02:49:47;14.63;;;4.65;;
60831;SDS011;46665;51.558;-0.448;2023-04-16T02:52:12;7.57;;;4.60;;
60831;SDS011;46665;51.558;-0.448;2023-04-16T02:54:37;10.55;;;4.85;;
60831;SDS011;46665;51.558;-0.448;2023-04-16T02:57:04;8.50;;;4.40;;
60831;SDS011;46665;51.558;-0.448;2023-04-16T02:59:30;10.82;;;3.75;;
60831;SDS011;46665;51.558;-0.448;2023-04-16T03:01:55;7.28;;;4.32;;
60831;SDS011;46665;51.558;-0.448;2023-04-16T03:04:21;18.20;;;4.40;;
60831;SDS011;46665;51.558;-0.448;2023-04-16T03:06:46;13.98;;;5.40;;
60831;SDS011;46665;51.558;-0.448;2023-04-16T03:09:12;7.88;;;4.88;;
60831;SDS011;46665;51.558;-0.448;2023-04-16T03:11:37;9.95;;;4.22;;
60831;SDS011;46665;51.558;-0.448;2023-04-16T03:14:02;7.28;;;4.30;;
60831;SDS011;46665;51.558;-0.448;2023-04-16T03:16:28;5.88;;;4.03;;
60831;SDS011;46665;51.558;-0.448;2023-04-16T03:18:53;9.27;;;4.95;;
60831;SDS011;46665;51.558;-0.448;2023-04-16T03:21:18;14.88;;;4.93;;
60831;SDS011;46665;51.558;-0.448;2023-04-16T03:23:44;7.88;;;5.43;;
60831;SDS011;46665;51.558;-0.448;2023-04-16T03:26:09;7.50;;;5.43;;
60831;SDS011;46665;51.558;-0.448;2023-04-16T03:28:35;8.38;;;4.30;;
60831;SDS011;46665;51.558;-0.448;2023-04-16T03:31:00;6.32;;;4.63;;
60831;SDS011;46665;51.558;-0.448;2023-04-16T03:33:25;6.88;;;4.40;;
60831;SDS011;46665;51.558;-0.448;2023-04-16T03:35:57;10.00;;;5.53;;
60831;SDS011;46665;51.558;-0.448;2023-04-16T03:38:23;8.77;;;5.43;;
60831;SDS011;46665;51.558;-0.448;2023-04-16T03:40:54;8.35;;;4.40;;
60831;SDS011;46665;51.558;-0.448;2023-04-16T03:43:19;5.63;;;4.18;;
60831;SDS011;46665;51.558;-0.448;2023-04-16T03:45:45;16.10;;;4.80;;
60831;SDS011;46665;51.558;-0.448;2023-04-16T03:48:11;6.10;;;3.85;;
60831;SDS011;46665;51.558;-0.448;2023-04-16T03:50:36;10.35;;;4.93;;
60831;SDS011;46665;51.558;-0.448;2023-04-16T03:53:02;5.38;;;3.97;;
60831;SDS011;46665;51.558;-0.448;2023-04-16T03:55:27;7.00;;;4.25;;
60831;SDS011;46665;51.558;-0.448;2023-04-16T03:57:52;8.63;;;4.95;;
60831;SDS011;46665;51.558;-0.448;2023-04-16T04:00:18;10.55;;;4.68;;
60831;SDS011;46665;51.558;-0.448;2023-04-16T04:02:43;11.10;;;4.70;;
60831;SDS011;46665;51.558;-0.448;2023-04-16T04:05:09;11.63;;;4.35;;
60831;SDS011;46665;51.558;-0.448;2023-04-16T04:07:35;8.30;;;4.45;;
60831;SDS011;46665;51.558;-0.448;2023-04-16T04:10:01;7.90;;;4.68;;
60831;SDS011;46665;51.558;-0.448;2023-04-16T04:12:26;5.28;;;4.72;;
60831;SDS011;46665;51.558;-0.448;2023-04-16T04:14:53;8.93;;;5.60;;
60831;SDS011;46665;51.558;-0.448;2023-04-16T04:17:18;10.27;;;4.82;;
60831;SDS011;46665;51.558;-0.448;2023-04-16T04:19:44;9.57;;;5.35;;
60831;SDS011;46665;51.558;-0.448;2023-04-16T04:22:09;9.00;;;4.38;;
60831;SDS011;46665;51.558;-0.448;2023-04-16T04:24:34;6.63;;;3.70;;
60831;SDS011;46665;51.558;-0.448;2023-04-16T04:27:00;4.60;;;3.40;;
60831;SDS011;46665;51.558;-0.448;2023-04-16T04:29:26;3.95;;;3.33;;
60831;SDS011;46665;51.558;-0.448;2023-04-16T04:31:51;6.03;;;3.33;;
60831;SDS011;46665;51.558;-0.448;2023-04-16T04:34:17;7.40;;;3.75;;
60831;SDS011;46665;51.558;-0.448;2023-04-16T04:36:43;8.32;;;3.78;;
60831;SDS011;46665;51.558;-0.448;2023-04-16T04:39:08;4.97;;;3.75;;
60831;SDS011;46665;51.558;-0.448;2023-04-16T04:41:33;10.43;;;4.20;;
60831;SDS011;46665;51.558;-0.448;2023-04-16T04:44:00;6.53;;;3.47;;
60831;SDS011;46665;51.558;-0.448;2023-04-16T04:46:25;5.60;;;3.42;;
60831;SDS011;46665;51.558;-0.448;2023-04-16T04:48:50;4.10;;;3.70;;
60831;SDS011;46665;51.558;-0.448;2023-04-16T04:51:16;4.95;;;3.90;;
60831;SDS011;46665;51.558;-0.448;2023-04-16T04:53:41;5.90;;;4.45;;
60831;SDS011;46665;51.558;-0.448;2023-04-16T04:56:07;9.50;;;3.20;;
60831;SDS011;46665;51.558;-0.448;2023-04-16T04:58:32;5.40;;;3.35;;
60831;SDS011;46665;51.558;-0.448;2023-04-16T05:00:57;9.40;;;4.93;;
60831;SDS011;46665;51.558;-0.448;2023-04-16T05:03:23;6.22;;;4.18;;
60831;SDS011;46665;51.558;-0.448;2023-04-16T05:05:48;5.53;;;3.92;;
60831;SDS011;46665;51.558;-0.448;2023-04-16T05:08:14;8.55;;;4.63;;
60831;SDS011;46665;51.558;-0.448;2023-04-16T05:10:40;4.95;;;4.10;;
60831;SDS011;46665;51.558;-0.448;2023-04-16T05:13:06;6.43;;;4.68;;
60831;SDS011;46665;51.558;-0.448;2023-04-16T05:15:31;10.48;;;4.82;;
60831;SDS011;46665;51.558;-0.448;2023-04-16T05:17:57;7.28;;;4.88;;
60831;SDS011;46665;51.558;-0.448;2023-04-16T05:20:22;5.28;;;4.00;;
60831;SDS011;46665;51.558;-0.448;2023-04-16T05:22:48;4.75;;;3.42;;
60831;SDS011;46665;51.558;-0.448;2023-04-16T05:25:15;6.55;;;4.35;;
60831;SDS011;46665;51.558;-0.448;2023-04-16T05:27:41;9.00;;;4.85;;
60831;SDS011;46665;51.558;-0.448;2023-04-16T05:30:07;5.60;;;3.85;;
60831;SDS011;46665;51.558;-0.448;2023-04-16T05:32:33;8.50;;;4.70;;
60831;SDS011;46665;51.558;-0.448;2023-04-16T05:34:58;8.50;;;4.80;;
60831;SDS011;46665;51.558;-0.448;2023-04-16T05:37:24;9.32;;;4.78;;
60831;SDS011;46665;51.558;-0.448;2023-04-16T05:39:49;7.85;;;3.38;;
60831;SDS011;46665;51.558;-0.448;2023-04-16T05:42:15;18.75;;;5.32;;
60831;SDS011;46665;51.558;-0.448;2023-04-16T05:44:40;17.63;;;4.78;;
60831;SDS011;46665;51.558;-0.448;2023-04-16T05:47:06;13.43;;;4.53;;
60831;SDS011;46665;51.558;-0.448;2023-04-16T05:49:33;8.95;;;5.28;;
60831;SDS011;46665;51.558;-0.448;2023-04-16T05:51:59;10.10;;;4.25;;
60831;SDS011;46665;51.558;-0.448;2023-04-16T05:54:24;6.85;;;4.70;;
60831;SDS011;46665;51.558;-0.448;2023-04-16T05:56:50;10.38;;;4.85;;
60831;SDS011;46665;51.558;-0.448;2023-04-16T05:59:15;7.00;;;4.47;;
60831;SDS011;46665;51.558;-0.448;2023-04-16T06:01:40;7.32;;;4.75;;
60831;SDS011;46665;51.558;-0.448;2023-04-16T06:04:06;9.38;;;4.97;;
60831;SDS011;46665;51.558;-0.448;2023-04-16T06:06:31;9.23;;;5.55;;
60831;SDS011;46665;51.558;-0.448;2023-04-16T06:08:57;7.15;;;5.07;;
60831;SDS011;46665;51.558;-0.448;2023-04-16T06:11:22;7.70;;;4.80;;
60831;SDS011;46665;51.558;-0.448;2023-04-16T06:13:47;6.88;;;4.78;;
60831;SDS011;46665;51.558;-0.448;2023-04-16T06:16:13;7.20;;;5.28;;
60831;SDS011;46665;51.558;-0.448;2023-04-16T06:18:38;6.75;;;4.05;;
60831;SDS011;46665;51.558;-0.448;2023-04-16T06:21:04;5.65;;;4.22;;
60831;SDS011;46665;51.558;-0.448;2023-04-16T06:23:29;12.40;;;5.75;;
60831;SDS011;46665;51.558;-0.448;2023-04-16T06:25:55;8.32;;;5.90;;
60831;SDS011;46665;51.558;-0.448;2023-04-16T06:28:20;6.15;;;5.15;;
60831;SDS011;46665;51.558;-0.448;2023-04-16T06:30:46;11.85;;;5.82;;
60831;SDS011;46665;51.558;-0.448;2023-04-16T06:33:11;15.52;;;5.38;;
60831;SDS011;46665;51.558;-0.448;2023-04-16T06:35:37;6.28;;;4.85;;
60831;SDS011;46665;51.558;-0.448;2023-04-16T06:38:02;7.65;;;4.72;;
60831;SDS011;46665;51.558;-0.448;2023-04-16T06:40:27;8.15;;;4.65;;
60831;SDS011;46665;51.558;-0.448;2023-04-16T06:42:53;5.25;;;4.72;;
60831;SDS011;46665;51.558;-0.448;2023-04-16T06:45:20;9.10;;;5.20;;
60831;SDS011;46665;51.558;-0.448;2023-04-16T06:47:45;9.38;;;5.10;;
60831;SDS011;46665;51.558;-0.448;2023-04-16T06:50:11;9.60;;;5.30;;
60831;SDS011;46665;51.558;-0.448;2023-04-16T06:52:37;10.52;;;5.38;;
60831;SDS011;46665;51.558;-0.448;2023-04-16T06:55:02;8.63;;;4.97;;
60831;SDS011;46665;51.558;-0.448;2023-04-16T06:57:28;9.32;;;5.13;;
60831;SDS011;46665;51.558;-0.448;2023-04-16T06:59:53;11.00;;;5.20;;
60831;SDS011;46665;51.558;-0.448;2023-04-16T07:02:19;7.18;;;4.90;;
60831;SDS011;46665;51.558;-0.448;2023-04-16T07:04:44;6.78;;;4.70;;
60831;SDS011;46665;51.558;-0.448;2023-04-16T07:07:10;7.72;;;5.65;;
60831;SDS011;46665;51.558;-0.448;2023-04-16T07:09:35;7.45;;;5.05;;
60831;SDS011;46665;51.558;-0.448;2023-04-16T07:12:00;7.75;;;5.07;;
60831;SDS011;46665;51.558;-0.448;2023-04-16T07:14:26;7.85;;;4.38;;
60831;SDS011;46665;51.558;-0.448;2023-04-16T07:16:51;7.72;;;5.28;;
60831;SDS011;46665;51.558;-0.448;2023-04-16T07:19:17;5.90;;;4.35;;
60831;SDS011;46665;51.558;-0.448;2023-04-16T07:21:42;6.85;;;4.97;;
60831;SDS011;46665;51.558;-0.448;2023-04-16T07:24:08;5.82;;;5.00;;
60831;SDS011;46665;51.558;-0.448;2023-04-16T07:26:35;7.18;;;4.18;;
60831;SDS011;46665;51.558;-0.448;2023-04-16T07:29:01;10.18;;;5.30;;
60831;SDS011;46665;51.558;-0.448;2023-04-16T07:31:26;11.60;;;5.43;;
60831;SDS011;46665;51.558;-0.448;2023-04-16T07:33:52;8.68;;;4.47;;
60831;SDS011;46665;51.558;-0.448;2023-04-16T07:36:17;6.57;;;4.70;;
60831;SDS011;46665;51.558;-0.448;2023-04-16T07:38:42;11.55;;;5.80;;
60831;SDS011;46665;51.558;-0.448;2023-04-16T07:41:08;10.55;;;5.25;;
60831;SDS011;46665;51.558;-0.448;2023-04-16T07:43:33;7.85;;;4.28;;
60831;SDS011;46665;51.558;-0.448;2023-04-16T07:45:59;6.85;;;4.78;;
60831;SDS011;46665;51.558;-0.448;2023-04-16T07:48:24;11.80;;;5.43;;
60831;SDS011;46665;51.558;-0.448;2023-04-16T07:50:50;11.73;;;6.00;;
60831;SDS011;46665;51.558;-0.448;2023-04-16T07:53:15;6.20;;;4.57;;
60831;SDS011;46665;51.558;-0.448;2023-04-16T07:55:40;6.65;;;4.63;;
60831;SDS011;46665;51.558;-0.448;2023-04-16T07:58:06;6.50;;;4.60;;
60831;SDS011;46665;51.558;-0.448;2023-04-16T08:00:33;7.50;;;5.15;;
60831;SDS011;46665;51.558;-0.448;2023-04-16T08:02:59;5.55;;;4.88;;
60831;SDS011;46665;51.558;-0.448;2023-04-16T08:05:24;5.35;;;4.65;;
60831;SDS011;46665;51.558;-0.448;2023-04-16T08:07:50;8.00;;;4.50;;
60831;SDS011;46665;51.558;-0.448;2023-04-16T08:10:15;11.90;;;4.90;;
60831;SDS011;46665;51.558;-0.448;2023-04-16T08:12:40;6.50;;;4.50;;
60831;SDS011;46665;51.558;-0.448;2023-04-16T08:15:06;6.80;;;4.93;;
60831;SDS011;46665;51.558;-0.448;2023-04-16T08:17:32;5.68;;;3.67;;
60831;SDS011;46665;51.558;-0.448;2023-04-16T08:19:58;5.82;;;3.67;;
60831;SDS011;46665;51.558;-0.448;2023-04-16T08:22:23;5.57;;;3.70;;
60831;SDS011;46665;51.558;-0.448;2023-04-16T08:24:50;5.00;;;3.50;;
60831;SDS011;46665;51.558;-0.448;2023-04-16T08:27:15;5.78;;;4.13;;
60831;SDS011;46665;51.558;-0.448;2023-04-16T08:29:41;9.13;;;4.10;;
60831;SDS011;46665;51.558;-0.448;2023-04-16T08:32:06;3.92;;;3.05;;
60831;SDS011;46665;51.558;-0.448;2023-04-16T08:34:34;7.07;;;2.75;;
60831;SDS011;46665;51.558;-0.448;2023-04-16T08:36:59;5.72;;;3.10;;
60831;SDS011;46665;51.558;-0.448;2023-04-16T08:39:25;5.07;;;3.13;;
60831;SDS011;46665;51.558;-0.448;2023-04-16T08:41:51;3.47;;;2.92;;
60831;SDS011;46665;51.558;-0.448;2023-04-16T08:44:25;5.57;;;3.53;;
60831;SDS011;46665;51.558;-0.448;2023-04-16T08:46:52;9.13;;;3.63;;
60831;SDS011;46665;51.558;-0.448;2023-04-16T08:49:22;6.05;;;3.05;;
60831;SDS011;46665;51.558;-0.448;2023-04-16T08:51:49;5.38;;;2.80;;
60831;SDS011;46665;51.558;-0.448;2023-04-16T08:54:30;3.05;;;1.75;;
60831;SDS011;46665;51.558;-0.448;2023-04-16T08:57:03;4.80;;;2.20;;
60831;SDS011;46665;51.558;-0.448;2023-04-16T08:59:30;1.98;;;1.55;;
60831;SDS011;46665;51.558;-0.448;2023-04-16T09:01:57;2.78;;;2.28;;
60831;SDS011;46665;51.558;-0.448;2023-04-16T09:04:25;3.88;;;2.45;;
60831;SDS011;46665;51.558;-0.448;2023-04-16T09:06:52;1.90;;;1.23;;
60831;SDS011;46665;51.558;-0.448;2023-04-16T09:09:19;3.25;;;1.70;;
60831;SDS011;46665;51.558;-0.448;2023-04-16T09:11:48;2.58;;;2.13;;
60831;SDS011;46665;51.558;-0.448;2023-04-16T09:14:15;2.05;;;1.80;;
60831;SDS011;46665;51.558;-0.448;2023-04-16T09:16:41;2.42;;;1.58;;
60831;SDS011;46665;51.558;-0.448;2023-04-16T09:19:08;3.78;;;1.15;;
60831;SDS011;46665;51.558;-0.448;2023-04-16T09:21:33;2.75;;;1.30;;
60831;SDS011;46665;51.558;-0.448;2023-04-16T09:24:00;1.02;;;0.93;;
60831;SDS011;46665;51.558;-0.448;2023-04-16T09:26:26;1.45;;;1.35;;
60831;SDS011;46665;51.558;-0.448;2023-04-16T09:28:51;2.38;;;1.40;;
60831;SDS011;46665;51.558;-0.448;2023-04-16T09:31:17;1.00;;;0.90;;
60831;SDS011;46665;51.558;-0.448;2023-04-16T09:33:59;1.52;;;0.90;;
60831;SDS011;46665;51.558;-0.448;2023-04-16T09:36:32;1.90;;;1.40;;
60831;SDS011;46665;51.558;-0.448;2023-04-16T09:38:59;1.88;;;1.00;;
60831;SDS011;46665;51.558;-0.448;2023-04-16T09:41:28;3.15;;;0.93;;
60831;SDS011;46665;51.558;-0.448;2023-04-16T09:43:56;1.08;;;0.80;;
60831;SDS011;46665;51.558;-0.448;2023-04-16T09:46:35;3.33;;;0.93;;
60831;SDS011;46665;51.558;-0.448;2023-04-16T09:49:22;1.40;;;0.85;;
60831;SDS011;46665;51.558;-0.448;2023-04-16T09:51:48;1.20;;;0.95;;
60831;SDS011;46665;51.558;-0.448;2023-04-16T09:54:17;0.85;;;0.80;;
60831;SDS011;46665;51.558;-0.448;2023-04-16T09:56:44;0.57;;;0.52;;
60831;SDS011;46665;51.558;-0.448;2023-04-16T09:59:20;0.95;;;0.85;;
60831;SDS011;46665;51.558;-0.448;2023-04-16T10:01:47;1.42;;;1.25;;
60831;SDS011;46665;51.558;-0.448;2023-04-16T10:04:14;0.50;;;0.50;;
60831;SDS011;46665;51.558;-0.448;2023-04-16T10:06:40;0.60;;;0.32;;
60831;SDS011;46665;51.558;-0.448;2023-04-16T10:09:06;0.50;;;0.50;;
60831;SDS011;46665;51.558;-0.448;2023-04-16T10:11:33;4.13;;;0.60;;
60831;SDS011;46665;51.558;-0.448;2023-04-16T10:13:59;0.47;;;0.47;;
60831;SDS011;46665;51.558;-0.448;2023-04-16T10:16:25;0.60;;;0.50;;
60831;SDS011;46665;51.558;-0.448;2023-04-16T10:18:50;0.68;;;0.60;;
60831;SDS011;46665;51.558;-0.448;2023-04-16T10:21:18;3.80;;;0.57;;
60831;SDS011;46665;51.558;-0.448;2023-04-16T10:23:43;1.17;;;0.63;;
60831;SDS011;46665;51.558;-0.448;2023-04-16T10:26:09;1.85;;;0.70;;
60831;SDS011;46665;51.558;-0.448;2023-04-16T10:28:35;0.52;;;0.47;;
60831;SDS011;46665;51.558;-0.448;2023-04-16T10:31:02;0.35;;;0.35;;
60831;SDS011;46665;51.558;-0.448;2023-04-16T10:33:32;1.80;;;0.60;;
60831;SDS011;46665;51.558;-0.448;2023-04-16T10:36:06;0.32;;;0.32;;
60831;SDS011;46665;51.558;-0.448;2023-04-16T10:38:33;2.35;;;1.20;;
60831;SDS011;46665;51.558;-0.448;2023-04-16T10:41:02;0.43;;;0.43;;
60831;SDS011;46665;51.558;-0.448;2023-04-16T10:43:29;0.75;;;0.63;;
60831;SDS011;46665;51.558;-0.448;2023-04-16T10:45:55;0.65;;;0.60;;
60831;SDS011;46665;51.558;-0.448;2023-04-16T10:48:22;0.30;;;0.30;;
60831;SDS011;46665;51.558;-0.448;2023-04-16T10:50:57;0.55;;;0.40;;
60831;SDS011;46665;51.558;-0.448;2023-04-16T10:53:26;8.38;;;1.38;;
60831;SDS011;46665;51.558;-0.448;2023-04-16T10:55:58;0.60;;;0.40;;
60831;SDS011;46665;51.558;-0.448;2023-04-16T10:58:35;0.30;;;0.30;;
60831;SDS011;46665;51.558;-0.448;2023-04-16T11:01:05;0.20;;;0.20;;
60831;SDS011;46665;51.558;-0.448;2023-04-16T11:03:35;0.22;;;0.22;;
60831;SDS011;46665;51.558;-0.448;2023-04-16T11:08:40;0.85;;;0.50;;
60831;SDS011;46665;51.558;-0.448;2023-04-16T11:11:07;0.30;;;0.30;;
60831;SDS011;46665;51.558;-0.448;2023-04-16T11:13:34;0.30;;;0.30;;
60831;SDS011;46665;51.558;-0.448;2023-04-16T11:16:00;4.07;;;0.60;;
60831;SDS011;46665;51.558;-0.448;2023-04-16T11:18:26;0.80;;;0.45;;
60831;SDS011;46665;51.558;-0.448;2023-04-16T11:20:51;0.30;;;0.30;;
60831;SDS011;46665;51.558;-0.448;2023-04-16T11:23:17;2.92;;;0.52;;
60831;SDS011;46665;51.558;-0.448;2023-04-16T11:25:43;1.20;;;0.35;;
60831;SDS011;46665;51.558;-0.448;2023-04-16T11:28:09;0.40;;;0.40;;
60831;SDS011;46665;51.558;-0.448;2023-04-16T11:30:35;0.30;;;0.30;;
60831;SDS011;46665;51.558;-0.448;2023-04-16T11:33:02;0.40;;;0.40;;
60831;SDS011;46665;51.558;-0.448;2023-04-16T11:35:28;0.73;;;0.45;;
60831;SDS011;46665;51.558;-0.448;2023-04-16T11:37:57;0.30;;;0.30;;
60831;SDS011;46665;51.558;-0.448;2023-04-16T11:40:23;0.43;;;0.40;;
60831;SDS011;46665;51.558;-0.448;2023-04-16T11:42:49;1.50;;;0.43;;
60831;SDS011;46665;51.558;-0.448;2023-04-16T11:45:14;7.22;;;0.40;;
60831;SDS011;46665;51.558;-0.448;2023-04-16T11:50:26;0.90;;;0.30;;
60831;SDS011;46665;51.558;-0.448;2023-04-16T11:52:53;9.13;;;0.70;;
60831;SDS011;46665;51.558;-0.448;2023-04-16T11:55:20;0.20;;;0.20;;
60831;SDS011;46665;51.558;-0.448;2023-04-16T11:57:46;0.32;;;0.32;;
60831;SDS011;46665;51.558;-0.448;2023-04-16T12:00:12;0.88;;;0.70;;
60831;SDS011;46665;51.558;-0.448;2023-04-16T12:05:04;1.38;;;0.43;;
60831;SDS011;46665;51.558;-0.448;2023-04-16T12:07:42;0.30;;;0.30;;
60831;SDS011;46665;51.558;-0.448;2023-04-16T12:10:10;0.47;;;0.45;;
60831;SDS011;46665;51.558;-0.448;2023-04-16T12:12:36;0.68;;;0.68;;
60831;SDS011;46665;51.558;-0.448;2023-04-16T12:15:01;2.78;;;0.50;;
60831;SDS011;46665;51.558;-0.448;2023-04-16T12:17:28;0.60;;;0.60;;
60831;SDS011;46665;51.558;-0.448;2023-04-16T12:19:58;0.30;;;0.30;;
60831;SDS011;46665;51.558;-0.448;2023-04-16T12:22:28;0.38;;;0.25;;
60831;SDS011;46665;51.558;-0.448;2023-04-16T12:24:59;7.70;;;0.60;;
60831;SDS011;46665;51.558;-0.448;2023-04-16T12:27:39;1.00;;;0.60;;
60831;SDS011;46665;51.558;-0.448;2023-04-16T12:30:06;1.48;;;0.77;;
60831;SDS011;46665;51.558;-0.448;2023-04-16T12:32:32;1.20;;;0.47;;
60831;SDS011;46665;51.558;-0.448;2023-04-16T12:34:57;2.38;;;0.40;;
60831;SDS011;46665;51.558;-0.448;2023-04-16T12:37:23;3.55;;;0.43;;
60831;SDS011;46665;51.558;-0.448;2023-04-16T12:39:49;4.28;;;0.30;;
60831;SDS011;46665;51.558;-0.448;2023-04-16T12:42:14;2.15;;;0.93;;
60831;SDS011;46665;51.558;-0.448;2023-04-16T12:44:40;0.43;;;0.43;;
60831;SDS011;46665;51.558;-0.448;2023-04-16T12:47:05;0.88;;;0.57;;
60831;SDS011;46665;51.558;-0.448;2023-04-16T12:49:30;0.50;;;0.40;;
60831;SDS011;46665;51.558;-0.448;2023-04-16T12:51:56;1.58;;;0.57;;
60831;SDS011;46665;51.558;-0.448;2023-04-16T12:54:21;0.95;;;0.47;;
60831;SDS011;46665;51.558;-0.448;2023-04-16T12:56:47;0.75;;;0.38;;
60831;SDS011;46665;51.558;-0.448;2023-04-16T12:59:12;0.85;;;0.40;;
60831;SDS011;46665;51.558;-0.448;2023-04-16T13:01:37;0.50;;;0.32;;
60831;SDS011;46665;51.558;-0.448;2023-04-16T13:04:03;0.40;;;0.30;;
60831;SDS011;46665;51.558;-0.448;2023-04-16T13:06:29;2.13;;;1.13;;
60831;SDS011;46665;51.558;-0.448;2023-04-16T13:08:57;2.95;;;0.75;;
60831;SDS011;46665;51.558;-0.448;2023-04-16T13:11:23;0.20;;;0.20;;
60831;SDS011;46665;51.558;-0.448;2023-04-16T13:13:48;1.45;;;0.40;;
60831;SDS011;46665;51.558;-0.448;2023-04-16T13:16:14;5.60;;;0.30;;
60831;SDS011;46665;51.558;-0.448;2023-04-16T13:18:40;3.65;;;0.50;;
60831;SDS011;46665;51.558;-0.448;2023-04-16T13:21:06;0.30;;;0.30;;
60831;SDS011;46665;51.558;-0.448;2023-04-16T13:23:33;2.63;;;0.50;;
60831;SDS011;46665;51.558;-0.448;2023-04-16T13:25:59;0.50;;;0.32;;
60831;SDS011;46665;51.558;-0.448;2023-04-16T13:28:24;1.08;;;0.50;;
60831;SDS011;46665;51.558;-0.448;2023-04-16T13:30:50;0.65;;;0.35;;
60831;SDS011;46665;51.558;-0.448;2023-04-16T13:33:16;0.40;;;0.30;;
60831;SDS011;46665;51.558;-0.448;2023-04-16T13:35:42;0.50;;;0.40;;
60831;SDS011;46665;51.558;-0.448;2023-04-16T13:38:07;0.20;;;0.20;;
60831;SDS011;46665;51.558;-0.448;2023-04-16T13:40:32;0.85;;;0.52;;
60831;SDS011;46665;51.558;-0.448;2023-04-16T13:42:58;0.25;;;0.20;;
60831;SDS011;46665;51.558;-0.448;2023-04-16T13:45:24;0.28;;;0.28;;
60831;SDS011;46665;51.558;-0.448;2023-04-16T13:47:50;0.68;;;0.35;;
60831;SDS011;46665;51.558;-0.448;2023-04-16T13:50:16;0.40;;;0.30;;
60831;SDS011;46665;51.558;-0.448;2023-04-16T13:52:41;0.47;;;0.20;;
60831;SDS011;46665;51.558;-0.448;2023-04-16T13:55:07;0.30;;;0.30;;
60831;SDS011;46665;51.558;-0.448;2023-04-16T13:57:33;0.68;;;0.65;;
60831;SDS011;46665;51.558;-0.448;2023-04-16T13:59:59;0.38;;;0.28;;
60831;SDS011;46665;51.558;-0.448;2023-04-16T14:02:24;0.47;;;0.38;;
60831;SDS011;46665;51.558;-0.448;2023-04-16T14:04:50;0.63;;;0.50;;
60831;SDS011;46665;51.558;-0.448;2023-04-16T14:07:15;3.10;;;0.77;;
60831;SDS011;46665;51.558;-0.448;2023-04-16T14:09:41;0.85;;;0.80;;
60831;SDS011;46665;51.558;-0.448;2023-04-16T14:12:06;0.52;;;0.52;;
60831;SDS011;46665;51.558;-0.448;2023-04-16T14:14:32;2.38;;;1.42;;
60831;SDS011;46665;51.558;-0.448;2023-04-16T14:16:57;3.63;;;0.90;;
60831;SDS011;46665;51.558;-0.448;2023-04-16T14:19:23;0.70;;;0.52;;
60831;SDS011;46665;51.558;-0.448;2023-04-16T14:21:49;0.52;;;0.52;;
60831;SDS011;46665;51.558;-0.448;2023-04-16T14:24:14;0.50;;;0.50;;
60831;SDS011;46665;51.558;-0.448;2023-04-16T14:26:41;0.20;;;0.20;;
60831;SDS011;46665;51.558;-0.448;2023-04-16T14:29:08;0.55;;;0.20;;
60831;SDS011;46665;51.558;-0.448;2023-04-16T14:31:33;0.35;;;0.20;;
60831;SDS011;46665;51.558;-0.448;2023-04-16T14:34:00;0.45;;;0.30;;
60831;SDS011;46665;51.558;-0.448;2023-04-16T14:36:25;0.50;;;0.45;;
60831;SDS011;46665;51.558;-0.448;2023-04-16T14:38:51;0.75;;;0.40;;